• Join FlightAware (Why Join?)
  • Login
  • US Flag 
11:52AM EDT


 

Airport Tracker/Info


-or-


 

Live Flight TrackerFlight Track Log ✈ AVN10 ✈ 15-Nov-2013 ✈ NVVV / VLI - YSSY / SYD

Flight Track Log - Related Links

Times and Time Zones

All times are in EST time to prevent confusion due to time zone crossing. See the AVN10 flight status page for this flight to view local times or setup timezone preferences in your user account.

Time Position Orientation Groundspeed Altitude Reporting Facility
EST Latitude Longitude Course Direction KTS MPH feet Rate Location/Type
03:09PM -18.0113 168.1608 206° Southwest  Level FlightAware Approximate
03:10PM -18.1153 168.1077 206° Southwest  Level FlightAware Approximate
03:11PM -18.2193 168.0545 206° Southwest  Level FlightAware Approximate
03:12PM -18.3232 168.0013 206° Southwest  Level FlightAware Approximate
03:13PM -18.4271 167.9480 206° Southwest  Level FlightAware Approximate
03:14PM -18.5148 167.8685 204° Southwest  Level Estimated
03:15PM -18.6206 167.8195 204° Southwest  Level FlightAware Approximate
03:16PM -18.7264 167.7704 204° Southwest  Level FlightAware Approximate
03:17PM -18.8322 167.7212 204° Southwest  Level FlightAware Approximate
03:18PM -18.9380 167.6719 204° Southwest  Level FlightAware Approximate
03:19PM -19.0437 167.6226 204° Southwest  Level FlightAware Approximate
03:20PM -19.1495 167.5732 204° Southwest  Level FlightAware Approximate
03:21PM -19.2552 167.5238 204° Southwest  Level FlightAware Approximate
03:22PM -19.3610 167.4743 204° Southwest  Level FlightAware Approximate
03:23PM -19.4667 167.4247 204° Southwest  Level FlightAware Approximate
03:24PM -19.5724 167.3751 204° Southwest  Level FlightAware Approximate
03:25PM -19.6780 167.3254 204° Southwest  Level FlightAware Approximate
03:26PM -19.7837 167.2756 204° Southwest  Level FlightAware Approximate
03:27PM -19.8894 167.2258 204° Southwest  Level FlightAware Approximate
03:28PM -19.9950 167.1759 204° Southwest  Level FlightAware Approximate
03:29PM -20.1006 167.1259 204° Southwest  Level FlightAware Approximate
03:30PM -20.2062 167.0759 204° Southwest  Level FlightAware Approximate
03:31PM -20.3118 167.0258 204° Southwest  Level FlightAware Approximate
03:32PM -20.4174 166.9756 204° Southwest  Level FlightAware Approximate
03:33PM -20.5230 166.9254 204° Southwest  Level FlightAware Approximate
03:34PM -20.6286 166.8751 204° Southwest  Level FlightAware Approximate
03:35PM -20.7341 166.8247 204° Southwest  Level FlightAware Approximate
03:36PM -20.8396 166.7742 204° Southwest  Level FlightAware Approximate
03:37PM -20.9452 166.7237 204° Southwest  Level FlightAware Approximate
03:37PM -20.8000 166.7860 216° Southwest 431 496 32,000  Level FlightAware
03:38PM -21.0292 166.6388 224° Southwest  Level Estimated
03:38PM -20.9020 166.7370 204° Southwest 432 497 32,000  Level FlightAware
03:39PM -21.1222 166.5652 216° Southwest  Level FlightAware Approximate
03:39PM -20.9730 166.7040 203° Southwest 433 498 32,000  Level FlightAware
03:39PM -21.0500 166.6670 204° Southwest 434 499 32,000  Level FlightAware
03:40PM -21.1100 166.6390 204° Southwest 433 498 32,000  Level FlightAware
03:40PM -21.1680 166.6110 204° Southwest 434 499 32,000  Level FlightAware
03:41PM -21.2300 166.5820 204° Southwest 433 498 32,000  Level FlightAware
03:41PM -21.2850 166.5560 204° Southwest 433 498 32,000  Level FlightAware
03:42PM -21.3550 166.5230 204° Southwest 434 499 32,000  Level FlightAware
03:43PM -21.4810 166.4630 204° Southwest 435 501 32,000  Level FlightAware
03:44PM -21.5790 166.4160 204° Southwest 436 502 32,000  Level FlightAware
03:45PM -21.6910 166.3630 204° Southwest 437 503 32,000  Level FlightAware
03:46PM -21.7870 166.3160 204° Southwest 436 502 32,000  Level FlightAware
03:46PM -21.8360 166.2930 204° Southwest 435 501 32,000  Level FlightAware
03:47PM -21.9400 166.2430 204° Southwest 435 501 32,000  Level FlightAware
03:48PM -21.9930 166.2150 206° Southwest 428 493 32,000  Level FlightAware
03:48PM -22.0420 166.1740 218° Southwest 420 483 32,000  Level FlightAware
03:49PM -22.0870 166.1270 224° Southwest 421 484 32,000  Level FlightAware
03:50PM -22.1650 166.0450 224° Southwest 422 486 32,000  Level FlightAware
03:50PM -22.2030 166.0050 224° Southwest 422 486 32,000  Level FlightAware
03:51PM -22.2560 165.9490 224° Southwest 423 487 32,000  Level FlightAware
03:52PM -22.3450 165.8550 224° Southwest 423 487 32,000  Level FlightAware
03:52PM -22.3860 165.8130 223° Southwest 425 489 32,000  Level FlightAware
03:53PM -22.4300 165.7660 225° Southwest 424 488 32,000  Level FlightAware
03:53PM -22.4750 165.7190 224° Southwest 426 490 32,000  Level FlightAware
03:54PM -22.5160 165.6760 224° Southwest 427 491 32,000  Level FlightAware
03:54PM -22.5640 165.6250 224° Southwest 427 491 32,000  Level FlightAware
03:55PM -22.6210 165.5640 225° Southwest 428 493 32,000  Level FlightAware
03:56PM -22.6630 165.5200 224° Southwest 430 495 32,000  Level FlightAware
03:56PM -22.7200 165.4590 225° Southwest 432 497 32,000  Level FlightAware
03:57PM -22.7740 165.4020 224° Southwest 432 497 32,000  Level FlightAware
03:57PM -22.8230 165.3500 224° Southwest 432 497 32,000  Level FlightAware
03:58PM -22.8730 165.2970 224° Southwest 432 497 32,000  Level FlightAware
03:59PM -22.9160 165.2520 224° Southwest 432 497 32,000  Level FlightAware
03:59PM -22.9770 165.1860 225° Southwest 432 497 32,000  Level FlightAware
04:00PM -23.0560 165.1020 224° Southwest 433 498 32,000  Level FlightAware
04:01PM -23.1050 165.0500 224° Southwest 434 499 32,000  Level FlightAware
04:01PM -23.1340 165.0200 224° Southwest 434 499 32,000  Level FlightAware
04:02PM -23.1800 164.9720 224° Southwest 434 499 32,000  Level FlightAware
04:02PM -23.2240 164.9250 224° Southwest 434 499 32,000  Level FlightAware
04:03PM -23.2680 164.8790 224° Southwest 434 499 32,000  Level FlightAware
04:04PM -23.3420 164.8010 224° Southwest 434 499 32,000  Level FlightAware
04:04PM -23.3710 164.7700 224° Southwest 434 499 32,000  Level FlightAware
04:05PM -23.4150 164.7240 224° Southwest 434 499 32,000  Level FlightAware
04:06PM -23.4600 164.6770 224° Southwest 434 499 32,000  Level FlightAware
04:06PM -23.5040 164.6310 224° Southwest 434 499 32,000  Level FlightAware
04:07PM -23.5770 164.5530 224° Southwest 434 499 32,000  Level FlightAware
04:08PM -23.6240 164.5040 224° Southwest 434 499 32,000  Level FlightAware
04:08PM -23.6510 164.4760 224° Southwest 434 499 32,000  Level FlightAware
04:10PM -23.7410 164.3810 224° Southwest 434 499 32,000  Level FlightAware
04:10PM -23.7700 164.3500 224° Southwest 434 499 32,000  Level FlightAware
04:10PM -23.7980 164.3200 224° Southwest 434 499 32,000  Level FlightAware
04:14PM -24.0596 164.0310 225° Southwest  Level FlightAware Approximate
04:15PM -24.1409 163.9409 225° Southwest  Level FlightAware Approximate
04:16PM -24.2220 163.8507 225° Southwest  Level FlightAware Approximate
04:17PM -24.3032 163.7604 225° Southwest  Level FlightAware Approximate
04:18PM -24.3842 163.6700 225° Southwest  Level FlightAware Approximate
04:19PM -24.4652 163.5794 225° Southwest  Level FlightAware Approximate
04:19PM -24.5857 163.4370 222° Southwest 36,000  Level Aus ATC (Calculated)
04:19PM -24.6440 163.3724 222° Southwest 36,000  Level Aus ATC (Calculated)
04:21PM -24.7562 163.2483 225° Southwest  Level FlightAware Approximate
04:22PM -24.8373 163.1584 225° Southwest  Level FlightAware Approximate
04:22PM -24.9304 163.0533 222° Southwest 36,000  Level Aus ATC (Calculated)
04:23PM -24.9183 163.0685 225° Southwest  Level FlightAware Approximate
04:23PM -24.9831 162.9944 222° Southwest 36,000  Level Aus ATC (Calculated)
04:24PM -24.9210 163.1011 57° Northeast  Level FlightAware Approximate
04:25PM -24.9831 162.9944 237° Southwest  Level FlightAware Approximate
04:25PM -25.2391 162.7070 222° Southwest 36,000  Level Aus ATC (Calculated)
04:26PM -25.3346 162.5993 222° Southwest 36,000  Level Aus ATC (Calculated)
04:26PM -25.3346 162.5993 222° Southwest 36,000  Level Aus ATC (Calculated)
04:28PM -25.4584 162.4555 225° Southwest  Level Estimated
04:29PM -25.5368 162.3667 226° Southwest  Level FlightAware Approximate
04:30PM -25.6152 162.2778 226° Southwest  Level FlightAware Approximate
04:31PM -25.6935 162.1888 226° Southwest  Level FlightAware Approximate
04:31PM -25.7962 162.0750 221° Southwest 36,000  Level Aus ATC (Calculated)
04:31PM -25.8351 162.0306 221° Southwest 36,000  Level Aus ATC (Calculated)
04:33PM -25.9470 161.9024 226° Southwest  Level FlightAware Approximate
04:34PM -26.0251 161.8129 226° Southwest  Level FlightAware Approximate
04:35PM -26.1030 161.7232 226° Southwest  Level FlightAware Approximate
04:36PM -26.1810 161.6334 226° Southwest  Level FlightAware Approximate
04:37PM -26.2588 161.5434 226° Southwest  Level FlightAware Approximate
04:38PM -26.3366 161.4534 226° Southwest  Level FlightAware Approximate
04:39PM -26.4144 161.3632 226° Southwest  Level FlightAware Approximate
04:40PM -26.4921 161.2729 226° Southwest  Level FlightAware Approximate
04:41PM -26.5697 161.1825 226° Southwest  Level FlightAware Approximate
04:42PM -26.6473 161.0920 226° Southwest  Level FlightAware Approximate
04:43PM -26.7248 161.0013 226° Southwest  Level FlightAware Approximate
04:44PM -26.8022 160.9105 226° Southwest  Level FlightAware Approximate
04:45PM -26.8796 160.8196 226° Southwest  Level FlightAware Approximate
04:45PM -27.2031 160.4376 219° Southwest 36,000  Level Aus ATC (Calculated)
04:46PM -26.9570 160.7286 226° Southwest  Level FlightAware Approximate
04:47PM -27.2815 160.3445 227° Southwest  Level FlightAware Approximate
04:47PM -27.4011 160.2021 219° Southwest 36,000  Level Aus ATC (Calculated)
04:48PM -27.3585 160.2528 227° Southwest  Level FlightAware Approximate
04:49PM -27.4793 160.1087 227° Southwest  Level FlightAware Approximate
04:49PM -27.6151 159.9460 218° Southwest 36,000  Level Aus ATC (Calculated)
04:50PM -27.5562 160.0166 227° Southwest  Level FlightAware Approximate
04:51PM -27.6330 159.9245 227° Southwest  Level FlightAware Approximate
04:52PM -27.7699 159.7599 227° Southwest  Level FlightAware Approximate
04:52PM -27.8153 159.7050 217° Southwest 36,000  Level Aus ATC (Calculated)
04:52PM -27.8703 159.6386 217° Southwest 36,000  Level Aus ATC (Calculated)
04:54PM -27.9558 159.5351 227° Southwest  Level FlightAware Approximate
04:54PM -28.0144 159.4640 216° Southwest 36,000  Level Aus ATC (Calculated)
04:55PM -28.0323 159.4423 227° Southwest  Level FlightAware Approximate
04:56PM -28.1189 159.3369 227° Southwest  Level FlightAware Approximate
04:56PM -28.1943 159.2450 215° Southwest 36,000  Level Aus ATC (Calculated)
04:58PM -28.3146 159.0979 227° Southwest  Level FlightAware Approximate
04:59PM -28.2317 159.1994 47° Northeast  Level FlightAware Approximate
05:00PM -28.3146 159.0979 227° Southwest  Level FlightAware Approximate
05:00PM -28.5397 158.8210 211° Southwest 36,000  Level Aus ATC (Calculated)
05:01PM -28.2317 159.1994 47° Northeast  Level FlightAware Approximate
05:02PM -28.4060 158.9857 47° Northeast  Level FlightAware Approximate
05:03PM -28.3232 159.0873 47° Northeast  Level FlightAware Approximate
05:04PM -28.2403 159.1888 47° Northeast  Level FlightAware Approximate
05:05PM -28.3232 159.0873 227° Southwest  Level FlightAware Approximate
05:05PM -28.9458 158.3166 202° Southwest 36,000  Level Aus ATC (Calculated)
05:05PM -28.9863 158.2659 201° Southwest 36,000  Level Aus ATC (Calculated)
05:07PM -28.8671 158.4149 48° Northeast  Level FlightAware Approximate
05:08PM -28.7847 158.5175 48° Northeast  Level FlightAware Approximate
05:09PM -28.7023 158.6198 47° Northeast  Level FlightAware Approximate
05:10PM -28.7828 158.5155 227° Southwest  Level Estimated
05:10PM -29.3500 157.8083 174° South 36,000  Level Aus ATC (Calculated)
05:12PM -29.4904 157.6302 228° Southwest  Level FlightAware Approximate
05:12PM -29.5916 157.5014 133° Southeast 36,000  Level Aus ATC (Calculated)
05:14PM -29.6950 157.3694 228° Southwest  Level FlightAware Approximate
05:15PM -29.7764 157.2650 228° Southwest  Level FlightAware Approximate
05:15PM -29.7924 157.2445 100° East 36,000  Level Aus ATC (Calculated)
05:16PM -29.8578 157.1605 228° Southwest  Level FlightAware Approximate
05:17PM -29.9334 157.0631 228° Southwest  Level FlightAware Approximate
05:18PM -30.0147 156.9582 228° Southwest  Level FlightAware Approximate
05:19PM -30.0958 156.8532 228° Southwest  Level FlightAware Approximate
05:20PM -30.1769 156.7480 228° Southwest  Level FlightAware Approximate
05:20PM -30.1925 156.7277 73° East 36,000  Level Aus ATC (Calculated)
05:21PM -29.8842 157.8696 228° Southwest 432 497 36,100  Climbing Aus ATC (RADAR)
05:22PM -29.9241 157.8318 219° Southwest 440 506 36,100  Level Aus ATC (RADAR)
05:22PM -29.9786 157.7795 220° Southwest 439 505 36,100  Level Aus ATC (RADAR)
05:23PM -30.0498 157.7118 219° Southwest 440 506 36,100  Level Aus ATC (RADAR)
05:24PM -30.1046 157.6593 220° Southwest 440 506 36,100  Level Aus ATC (RADAR)
05:25PM -30.1821 157.5853 220° Southwest 437 503 36,100  Level Aus ATC (RADAR)
05:25PM -30.2050 157.5631 220° Southwest 436 502 36,100  Level Aus ATC (RADAR)
05:25PM -30.2611 157.5093 220° Southwest 440 506 36,100  Level Aus ATC (RADAR)
05:27PM -30.3786 157.3965 220° Southwest 439 505 36,100  Level Aus ATC (RADAR)
05:27PM -30.4162 157.3607 219° Southwest 434 499 36,100  Level Aus ATC (RADAR)
05:27PM -30.4643 157.3146 220° Southwest 437 503 36,100  Level Aus ATC (RADAR)
05:28PM -30.5363 157.2456 220° Southwest 443 510 36,100  Level Aus ATC (RADAR)
05:29PM -30.5899 157.1936 220° Southwest 439 505 36,100  Level Aus ATC (RADAR)
05:30PM -30.6557 157.1292 220° Southwest 427 491 36,100  Level Aus ATC (RADAR)
05:30PM -30.6947 157.0911 220° Southwest 431 496 36,100  Level Aus ATC (RADAR)
05:31PM -30.7496 157.0376 220° Southwest 438 504 36,100  Level Aus ATC (RADAR)
05:32PM -30.8664 156.9242 220° Southwest 438 504 36,100  Level Aus ATC (RADAR)
05:32PM -30.9131 156.8791 220° Southwest 437 503 36,100  Level Aus ATC (RADAR)
05:33PM -30.9669 156.8266 220° Southwest 435 501 36,100  Level Aus ATC (RADAR)
05:34PM -31.0432 156.7518 220° Southwest 431 496 36,100  Level Aus ATC (RADAR)
05:34PM -31.0966 156.6995 220° Southwest 431 496 36,100  Level Aus ATC (RADAR)
05:35PM -31.1729 156.6248 220° Southwest 430 495 36,100  Level Aus ATC (RADAR)
05:35PM -31.1959 156.6023 220° Southwest 430 495 36,100 900 Level Aus ATC (RADAR)
05:37PM -31.3082 156.4912 220° Southwest 421 484 37,500 1,140 Climbing Aus ATC (RADAR)
05:37PM -31.3439 156.4560 220° Southwest 412 474 38,000 720 Climbing Aus ATC (RADAR)
05:37PM -31.3794 156.4209 220° Southwest 405 466 38,100 60 Climbing Aus ATC (RADAR)
05:38PM -31.4300 156.3708 220° Southwest 407 468 38,100  Level Aus ATC (RADAR)
05:39PM -31.5121 156.2899 220° Southwest 419 482 38,100 -120 Level Aus ATC (RADAR)
05:40PM -31.5656 156.2372 220° Southwest 427 491 38,000 -120 Descending Aus ATC (RADAR)
05:40PM -31.6418 156.1612 220° Southwest 432 497 38,000  Level Aus ATC (RADAR)
05:41PM -31.6802 156.1228 220° Southwest 434 499 38,000  Level Aus ATC (RADAR)
05:42PM -31.7800 156.0233 220° Southwest 435 501 38,000  Level Aus ATC (RADAR)
05:42PM -31.8180 155.9850 221° Southwest 434 499 38,000  Level Aus ATC (RADAR)
05:43PM -31.8718 155.9310 220° Southwest 436 502 38,000  Level Aus ATC (RADAR)
05:44PM -31.9413 155.8612 220° Southwest 438 504 38,000  Level Aus ATC (RADAR)
05:44PM -31.9963 155.8070 220° Southwest 441 507 38,000  Level Aus ATC (RADAR)
05:45PM -32.0503 155.7529 220° Southwest 440 506 38,000  Level Aus ATC (RADAR)
05:45PM -32.1034 155.6990 221° Southwest 438 504 38,000  Level Aus ATC (RADAR)
05:46PM -32.1646 155.6368 221° Southwest 437 503 38,000  Level Aus ATC (RADAR)
05:47PM -32.2020 155.5990 221° Southwest 438 504 38,000  Level FlightAware
05:47PM -32.2700 155.5300 221° Southwest 440 506 38,000  Level FlightAware
05:47PM -32.2795 155.5206 220° Southwest 437 503 38,000  Level Aus ATC (RADAR)
05:48PM -32.3028 155.4968 221° Southwest 438 504 38,000  Level Aus ATC (RADAR)
05:48PM -32.3080 155.4910 221° Southwest 442 509 38,000  Level FlightAware
05:48PM -32.3577 155.4408 221° Southwest 442 509 38,000  Level Aus ATC (RADAR)
05:49PM -32.4260 155.3720 221° Southwest 444 511 38,000  Level FlightAware
05:49PM -32.4356 155.3618 221° Southwest 444 511 38,000  Level Aus ATC (RADAR)
05:49PM -32.4630 155.3330 221° Southwest 441 507 38,000  Level FlightAware
05:50PM -32.4900 155.3063 221° Southwest 444 511 38,000  Level Aus ATC (RADAR)
05:50PM -32.5560 155.2389 221° Southwest 432 497 38,000  Level Aus ATC (RADAR)
05:51PM -32.5770 155.2170 221° Southwest 432 497 38,000  Level FlightAware
05:51PM -32.5934 155.2002 221° Southwest 430 495 38,000  Level Aus ATC (RADAR)
05:51PM -32.6540 155.1380 221° Southwest 430 495 38,000  Level FlightAware
05:52PM -32.7260 155.0640 221° Southwest 432 497 38,000  Level FlightAware
05:52PM -32.7358 155.0540 221° Southwest 430 495 38,000  Level Aus ATC (RADAR)
05:53PM -32.7950 154.9930 221° Southwest 440 506 38,000  Level FlightAware
05:53PM -32.8351 154.9514 221° Southwest 440 506 38,000  Level Aus ATC (RADAR)
05:54PM -32.8350 154.9490 221° Southwest 438 504 38,000  Level FlightAware
05:54PM -32.8854 154.8763 221° Southwest 443 510 38,000  Level Aus ATC (RADAR)
05:54PM -32.8800 154.8820 231° Southwest 430 495 38,000  Level FlightAware
05:54PM -32.9060 154.8340 231° Southwest 430 495 38,000  Level FlightAware
05:55PM -32.9214 154.8059 231° Southwest 432 497 38,000  Level Aus ATC (RADAR)
05:55PM -32.9640 154.7250 238° Southwest 431 496 38,000  Level FlightAware
05:55PM -32.9742 154.7060 231° Southwest 429 494 38,000  Level Aus ATC (RADAR)
05:56PM -32.9899 154.6759 238° Southwest 429 494 38,000  Level Aus ATC (RADAR)
05:56PM -33.0200 154.6200 238° Southwest 433 498 38,000 60 Level FlightAware
05:57PM -33.0653 154.5346 238° Southwest 434 499 38,100  Climbing Aus ATC (RADAR)
05:57PM -33.0790 154.5090 238° Southwest 435 501 38,000  Descending FlightAware
05:57PM -33.0920 154.4841 238° Southwest 433 498 38,100 120 Climbing Aus ATC (RADAR)
05:58PM -33.1230 154.4229 238° Southwest 432 497 38,100 -240 Level Aus ATC (RADAR)
05:58PM -33.1210 154.4290 238° Southwest 436 502 38,000 -240 Descending FlightAware
05:58PM -33.1530 154.3680 238° Southwest 438 504 38,000 180 Level FlightAware
05:58PM -33.1624 154.3521 238° Southwest 437 503 38,100 120 Climbing Aus ATC (RADAR)
05:59PM -33.2104 154.2603 238° Southwest 436 502 38,100 -120 Level Aus ATC (RADAR)
05:59PM -33.2130 154.2550 238° Southwest 438 504 38,000 -120 Descending FlightAware
06:00PM -33.2640 154.1580 238° Southwest 439 505 38,000 60 Level FlightAware
06:01PM -33.3131 154.0654 238° Southwest 438 504 38,100  Climbing Aus ATC (RADAR)
06:01PM -33.3170 154.0570 238° Southwest 440 506 38,000  Descending FlightAware
06:01PM -33.3307 154.0311 238° Southwest 424 488 38,100  Climbing Aus ATC (RADAR)
06:02PM -33.3750 153.9460 238° Southwest 437 503 38,000  Descending FlightAware
06:02PM -33.4093 153.8809 238° Southwest 435 501 38,100  Climbing Aus ATC (RADAR)
06:02PM -33.4100 153.8790 238° Southwest 437 503 38,000  Descending FlightAware
06:03PM -33.4359 153.8295 238° Southwest 437 503 38,100  Climbing Aus ATC (RADAR)
06:03PM -33.4410 153.8190 238° Southwest 437 503 38,000  Descending FlightAware
06:03PM -33.4741 153.7544 238° Southwest 421 484 38,100  Climbing Aus ATC (RADAR)
06:03PM -33.4770 153.7490 238° Southwest 436 502 38,000  Descending FlightAware
06:04PM -33.5260 153.6555 238° Southwest 437 503 38,100  Climbing Aus ATC (RADAR)
06:04PM -33.5320 153.6450 238° Southwest 436 502 38,000 -120 Descending FlightAware
06:05PM -33.5830 153.5450 239° Southwest 436 502 38,000 60 Level FlightAware
06:05PM -33.6175 153.4777 239° Southwest 423 487 38,100 120 Climbing Aus ATC (RADAR)
06:06PM -33.6341 153.4473 237° Southwest 423 487 38,100 -420 Level Aus ATC (RADAR)
06:06PM -33.6320 153.4500 237° Southwest 437 503 38,000 -240 Descending FlightAware
06:06PM -33.6590 153.3990 237° Southwest 437 503 38,000 -540 Level FlightAware
06:06PM -33.6750 153.3680 237° Southwest 437 503 37,700 -1,740 Descending Aus ATC (RADAR)
06:07PM -33.7210 153.2780 227° Southwest 418 481 36,300 -1,800 Descending FlightAware
06:07PM -33.7322 153.2552 237° Southwest 411 473 36,000 -2,220 Descending Aus ATC (RADAR)
06:08PM -33.7645 153.2129 227° Southwest 400 460 35,100 -2,160 Descending Aus ATC (RADAR)
06:08PM -33.7650 153.2140 230° Southwest 420 483 35,000 -1,920 Descending FlightAware
06:08PM -33.8118 153.1537 230° Southwest 412 474 34,000 -1,980 Descending Aus ATC (RADAR)
06:09PM -33.8340 153.1220 230° Southwest 408 470 33,300 -1,920 Descending FlightAware
06:09PM -33.8890 153.0470 230° Southwest 400 460 31,900 -1,980 Descending FlightAware
06:10PM -33.9164 153.0107 230° Southwest 395 455 31,200 -1,980 Descending Aus ATC (RADAR)
06:10PM -33.9470 152.9690 230° Southwest 389 448 30,400 -1,740 Descending FlightAware
06:10PM -33.9700 152.9376 230° Southwest 386 444 29,900 -1,860 Descending Aus ATC (RADAR)
06:11PM -34.0033 152.8922 230° Southwest 385 443 29,000 -1,500 Descending Aus ATC (RADAR)
06:11PM -34.0120 152.8790 240° Southwest 376 433 28,900 -1,320 Descending FlightAware
06:11PM -34.0298 152.8377 240° Southwest 390 449 28,400 -1,680 Descending Aus ATC (RADAR)
06:12PM -34.0300 152.8110 252° West 353 406 27,900 -1,740 Descending FlightAware
06:13PM -34.0511 152.7065 252° West 342 394 26,400 -1,680 Descending Aus ATC (RADAR)
06:13PM -34.0490 152.7130 252° West 343 395 26,500 -1,500 Climbing FlightAware
06:13PM -34.0650 152.6420 255° West 335 386 25,400 -1,800 Descending FlightAware
06:14PM -34.0789 152.5309 261° West 320 368 23,600 -1,740 Descending FlightAware ADS-B (YSSY / SYD)
06:15PM -34.0726 152.4648 261° West 316 364 22,700 -1,320 Descending Aus ATC (RADAR)
06:15PM -34.0730 152.4670 261° West 319 367 22,700 -1,800 Level FlightAware
06:15PM -34.0663 152.3956 276° West 323 372 21,500 -1,740 Descending FlightAware ADS-B (YSSY / SYD)
06:16PM -34.0617 152.3407 276° West 316 364 20,800 -1,680 Descending Aus ATC (RADAR)
06:16PM -34.0601 152.3301 276° West 316 364 20,500 -1,680 Descending FlightAware ADS-B (YSSY / SYD)
06:17PM -34.0553 152.2769 276° West 308 354 19,800 -1,560 Descending Aus ATC (RADAR)
06:17PM -34.0542 152.2682 276° West 313 360 19,600 -1,740 Descending FlightAware ADS-B (YSSY / SYD)
06:18PM -34.0450 152.1743 277° West 304 350 18,100 -1,620 Descending FlightAware ADS-B (YSSY / SYD)
06:18PM -34.0383 152.1081 277° West 294 338 17,100 -1,560 Descending Aus ATC (RADAR)
06:18PM -34.0375 152.0972 277° West 300 345 16,900 -1,500 Descending FlightAware ADS-B (YSSY / SYD)
06:19PM -34.0329 152.0448 277° West 295 339 16,200 -1,980 Descending Aus ATC (RADAR)
06:19PM -34.0320 152.0406 277° West 292 336 15,800 -1,800 Descending FlightAware ADS-B (YSSY / SYD)
06:19PM -34.0272 151.9913 277° West 290 334 15,200 -1,320 Descending FlightAware ADS-B (YSSY / SYD)
06:20PM -34.0208 151.9283 277° West 284 327 14,300 -1,500 Descending FlightAware ADS-B (YSSY / SYD)
06:21PM -34.0163 151.8834 277° West 280 322 13,400 -1,500 Descending FlightAware ADS-B (YSBK / BWU)
06:21PM -34.0137 151.8581 277° West 276 318 12,600 -1,380 Descending FlightAware ADS-B (YWST)
06:22PM -34.0103 151.8247 277° West 270 311 11,700 -1,380 Descending FlightAware ADS-B (YSBK / BWU)
06:22PM -33.9995 151.7175 277° West 269 310 11,000 -1,620 Descending FlightAware ADS-B (YWST)
06:23PM -33.9948 151.6730 277° West 267 307 10,100 -1,440 Descending FlightAware ADS-B (YSBK / BWU)
06:23PM -33.9925 151.6513 277° West 265 305 9,900 -1,440 Descending FlightAware ADS-B (YWST)
06:24PM -33.9897 151.6236 277° West 262 302 9,300 -1,440 Descending FlightAware ADS-B (YSBK / BWU)
06:24PM -33.9869 151.5965 277° West 258 297 8,900 -900 Descending FlightAware ADS-B (YWST)
06:24PM -33.9840 151.5710 278° West 259 298 8,700 -960 Descending FlightAware ADS-B (YSBK / BWU)
06:24PM -33.9774 151.5521 293° West 263 303 8,500 -1,320 Descending FlightAware ADS-B (YSBK / BWU)
06:24PM -33.9736 151.5466 310° West 264 304 8,400 -600 Descending FlightAware ADS-B (YWST)
06:25PM -33.9708 151.5435 317° Northwest 266 306 8,400 -780 Level FlightAware ADS-B (YSBK / BWU)
06:25PM -33.9439 151.5186 322° Northwest 269 310 8,000 -840 Descending FlightAware ADS-B (YWST)
06:25PM -33.9392 151.5142 322° Northwest 268 308 8,000 -720 Level FlightAware ADS-B (YSBK / BWU)
06:25PM -33.9192 151.4958 323° Northwest 264 304 7,700 -900 Descending FlightAware ADS-B (YSBK / BWU)
06:26PM -33.9050 151.4828 323° Northwest 266 306 7,500 -780 Descending FlightAware ADS-B (YWST)
06:26PM -33.8899 151.4692 323° Northwest 267 307 7,300 -600 Descending FlightAware ADS-B (YWST)
06:26PM -33.8660 151.4476 323° Northwest 264 304 7,100 -900 Descending FlightAware ADS-B (YWST)
06:27PM -33.8487 151.4321 323° Northwest 263 303 6,700 -900 Descending FlightAware ADS-B (YSBK / BWU)
06:27PM -33.8274 151.4128 323° Northwest 264 304 6,500 -720 Descending FlightAware ADS-B (YWST)
06:27PM -33.8097 151.3969 323° Northwest 263 303 6,200 -960 Descending FlightAware ADS-B (YSBK / BWU)
06:28PM -33.7893 151.3784 323° Northwest 261 300 5,900 -780 Descending FlightAware ADS-B (YWST)
06:28PM -33.7691 151.3603 323° Northwest 262 302 5,700 -780 Descending FlightAware ADS-B (YWST)
06:28PM -33.7529 151.3455 323° Northwest 256 295 5,400 -1,020 Descending FlightAware ADS-B (YWST)
06:28PM -33.7386 151.3321 322° Northwest 255 293 5,200 -1,200 Descending FlightAware ADS-B (YSBK / BWU)
06:29PM -33.7317 151.3232 313° West 254 292 5,000 -1,320 Descending FlightAware ADS-B (YWST)
06:29PM -33.7266 151.3107 296° West 254 292 4,800 -1,440 Descending FlightAware ADS-B (YWST)
06:29PM -33.7216 151.2835 283° West 251 289 4,300 -1,500 Descending FlightAware ADS-B (YWST)
06:29PM -33.7178 151.2631 282° West 242 278 3,900 -1,200 Descending FlightAware ADS-B (YWST)
06:30PM -33.7139 151.2424 283° West 237 273 3,700 -840 Descending FlightAware ADS-B (YSBK / BWU)
06:30PM -33.7131 151.2353 278° West 236 272 3,600 -840 Descending FlightAware ADS-B (YWST)
06:30PM -33.7189 151.2102 254° West 224 258 3,300 -960 Descending FlightAware ADS-B (YSBK / BWU)
06:30PM -33.7286 151.1871 243° Southwest 215 247 3,000 -600 Descending FlightAware ADS-B (YWST)
06:31PM -33.7344 151.1757 238° Southwest 209 241 3,000 -300 Level FlightAware ADS-B (YWST)
06:31PM -33.7405 151.1699 219° Southwest 202 232 2,900 -420 Descending FlightAware ADS-B (YWST)
06:31PM -33.7553 151.1631 201° Southwest 192 221 2,800 -360 Descending FlightAware ADS-B (YWST)
06:31PM -33.7729 151.1560 198° South 179 206 2,700 -480 Descending FlightAware ADS-B (YSBK / BWU)
06:32PM -33.7896 151.1511 194° South 172 198 2,500 -420 Descending FlightAware ADS-B (YSBK / BWU)
06:32PM -33.7985 151.1510 181° South 172 198 2,500 -240 Level FlightAware ADS-B (YWST)
06:32PM -33.8146 151.1532 173° South 170 196 2,400 -300 Descending FlightAware ADS-B (YWST)
06:33PM -33.8299 151.1569 169° South 168 193 2,300 -480 Descending FlightAware ADS-B (YWST)
06:33PM -33.8448 151.1610 167° South 160 184 2,100 -780 Descending FlightAware ADS-B (YWST)
06:33PM -33.8573 151.1643 167° South 152 175 1,800 -900 Descending FlightAware ADS-B (YWST)
06:34PM -33.8712 151.1679 168° South 146 168 1,500 -840 Descending FlightAware ADS-B (YWST)
06:34PM -33.8782 151.1699 167° South 149 171 1,300 -900 Descending FlightAware ADS-B (YSBK / BWU)
06:34PM -33.8952 151.1742 168° South 148 170 1,000 -780 Descending FlightAware ADS-B (YSBK / BWU)
06:34PM -33.9048 151.1766 168° South 146 168 900 -780 Descending FlightAware ADS-B (YSBK / BWU)
06:35PM -33.9157 151.1795 168° South 146 168 600 -780 Descending FlightAware ADS-B (YSBK / BWU)
06:35PM -33.9290 151.1829 168° South 145 167 400 -540 Descending FlightAware ADS-B (YWST)
06:36PM -33.9570 151.1900 168° South 131 151 -600 Descending FlightAware